Time;durP1;ratioP1;P1;durP2;ratioP2;P2;SDS_P1;SDS_P2;PMS_P1;PMS_P2;Temp;Humidity;BMP_temperature;BMP_pressure;BME280_temperature;BME280_humidity;BME280_pressure;Samples;Min_cycle;Max_cycle;Signal;HPM_P1;HPM_P2
2021/12/27 00:01:04;;;;;;;17.67;13.20;;;8.20;99.90;;;;;;5066237;28;20483;-46
2021/12/27 00:03:30;;;;;;;32.67;16.80;;;8.20;99.90;;;;;;5079237;27;20482;-47
2021/12/27 00:05:57;;;;;;;27.50;17.43;;;8.30;99.90;;;;;;5076704;27;20485;-46
2021/12/27 00:08:24;;;;;;;16.37;12.67;;;8.30;99.90;;;;;;5057362;28;20914;-47
2021/12/27 00:10:52;;;;;;;16.90;12.03;;;8.30;99.90;;;;;;5060624;28;20486;-47
2021/12/27 00:13:19;;;;;;;22.70;14.73;;;8.30;99.90;;;;;;5066857;28;20481;-47
2021/12/27 00:15:45;;;;;;;18.63;13.80;;;8.30;99.90;;;;;;5065388;27;20484;-47
2021/12/27 00:18:13;;;;;;;24.73;13.57;;;8.20;99.90;;;;;;5094033;27;20474;-47
2021/12/27 00:20:40;;;;;;;18.23;12.00;;;8.20;99.90;;;;;;5083150;27;20539;-47
2021/12/27 00:23:07;;;;;;;15.60;10.30;;;8.30;99.90;;;;;;5079775;28;21013;-47
2021/12/27 00:25:34;;;;;;;15.40;11.73;;;8.30;99.90;;;;;;5065015;28;20493;-47
2021/12/27 00:28:02;;;;;;;22.87;13.47;;;8.30;99.90;;;;;;5065766;28;21020;-47
2021/12/27 00:30:29;;;;;;;19.60;11.80;;;8.40;99.90;;;;;;5055982;28;20491;-47
2021/12/27 00:32:56;;;;;;;20.33;11.53;;;8.40;99.90;;;;;;5091655;27;20503;-47
2021/12/27 00:35:26;;;;;;;18.07;11.27;;;8.50;99.90;;;;;;5066836;28;20499;-47
2021/12/27 00:37:53;;;;;;;16.80;11.40;;;8.60;99.90;;;;;;5068099;28;20495;-47
2021/12/27 00:40:20;;;;;;;21.43;11.20;;;8.70;99.90;;;;;;5066471;28;20558;-46
2021/12/27 00:42:49;;;;;;;19.97;11.27;;;8.70;99.90;;;;;;5084709;27;20568;-47
2021/12/27 00:45:20;;;;;;;22.00;12.23;;;8.70;99.90;;;;;;5067779;28;20475;-47
2021/12/27 00:47:46;;;;;;;21.57;12.90;;;8.80;99.90;;;;;;5060623;27;20847;-47
2021/12/27 00:50:13;;;;;;;17.97;13.20;;;8.80;99.90;;;;;;5081603;27;20483;-47
2021/12/27 00:52:40;;;;;;;21.57;12.10;;;8.80;99.90;;;;;;5083326;27;21102;-47
2021/12/27 00:55:10;;;;;;;20.97;12.70;;;8.80;99.90;;;;;;5065827;28;20843;-49
2021/12/27 00:57:37;;;;;;;19.37;11.10;;;8.90;99.90;;;;;;5062933;28;20596;-47
2021/12/27 01:00:05;;;;;;;23.17;13.33;;;8.90;99.90;;;;;;5081692;27;20542;-46
2021/12/27 01:02:33;;;;;;;15.37;10.30;;;8.90;99.90;;;;;;5062136;28;20481;-47
2021/12/27 01:05:00;;;;;;;22.07;11.10;;;9.00;99.90;;;;;;5055950;28;20462;-46
2021/12/27 01:07:27;;;;;;;22.30;11.93;;;9.10;99.90;;;;;;5065056;28;20489;-46
2021/12/27 01:10:05;;;;;;;18.27;12.13;;;9.10;99.90;;;;;;5056205;28;20478;-47
2021/12/27 01:12:45;;;;;;;18.13;11.07;;;9.10;99.90;;;;;;5072221;27;20475;-46
2021/12/27 01:15:33;;;;;;;21.30;10.33;;;9.10;99.90;;;;;;5080521;28;21120;-46
2021/12/27 01:18:01;;;;;;;14.00;10.93;;;9.20;99.90;;;;;;5075338;28;20511;-46
2021/12/27 01:20:28;;;;;;;20.77;10.23;;;9.20;99.90;;;;;;5092640;28;20540;-46
2021/12/27 01:22:55;;;;;;;22.30;12.37;;;9.20;99.90;;;;;;5083795;28;20532;-46
2021/12/27 01:25:23;;;;;;;18.40;10.60;;;9.10;99.90;;;;;;5084525;28;20516;-47
2021/12/27 01:27:51;;;;;;;23.93;11.13;;;9.20;99.90;;;;;;5079358;28;20554;-48
2021/12/27 01:30:19;;;;;;;20.40;12.20;;;9.10;99.90;;;;;;5086572;28;20482;-47
2021/12/27 01:32:49;;;;;;;20.47;10.80;;;9.20;99.90;;;;;;5076709;28;20484;-47
2021/12/27 01:35:18;;;;;;;18.40;11.40;;;9.20;99.90;;;;;;5079473;28;20829;-47
2021/12/27 01:37:45;;;;;;;18.40;11.30;;;9.20;99.90;;;;;;5080766;28;21088;-47
2021/12/27 01:40:14;;;;;;;22.37;10.90;;;9.20;99.90;;;;;;5081146;28;20579;-47
2021/12/27 01:43:02;;;;;;;14.70;9.70;;;9.20;99.90;;;;;;5087587;28;20488;-47
2021/12/27 01:45:29;;;;;;;19.73;11.20;;;9.20;99.90;;;;;;5082367;28;20494;-47
2021/12/27 01:47:56;;;;;;;19.57;10.63;;;9.20;99.90;;;;;;5076008;28;20475;-47
2021/12/27 01:50:24;;;;;;;22.70;13.60;;;9.20;99.90;;;;;;5098365;28;20491;-47
2021/12/27 01:52:51;;;;;;;21.87;13.10;;;9.20;99.90;;;;;;5088135;28;20544;-47
2021/12/27 01:55:19;;;;;;;19.93;12.03;;;9.20;99.90;;;;;;5082228;28;20505;-47
2021/12/27 01:57:46;;;;;;;33.93;15.17;;;9.10;99.90;;;;;;5081126;28;20478;-47
2021/12/27 02:00:14;;;;;;;19.07;12.50;;;9.10;99.90;;;;;;5081875;28;20566;-47
2021/12/27 02:02:41;;;;;;;23.80;12.13;;;9.10;99.90;;;;;;5081184;27;20546;-47
2021/12/27 02:05:08;;;;;;;24.50;10.67;;;9.10;99.90;;;;;;5097487;27;20485;-47
2021/12/27 02:07:36;;;;;;;18.70;10.13;;;9.10;99.90;;;;;;5085584;28;20531;-48
2021/12/27 02:10:04;;;;;;;14.70;9.17;;;9.20;99.90;;;;;;5076104;28;20511;-47
2021/12/27 02:12:31;;;;;;;19.43;11.30;;;9.20;99.90;;;;;;5088400;28;20479;-47
2021/12/27 02:14:59;;;;;;;16.27;9.80;;;9.30;99.90;;;;;;5107218;27;20506;-47
2021/12/27 02:17:26;;;;;;;21.00;11.33;;;9.30;99.90;;;;;;5079849;27;20597;-47
2021/12/27 02:19:54;;;;;;;15.40;9.20;;;9.30;99.90;;;;;;5079956;28;21035;-48
2021/12/27 02:22:22;;;;;;;13.93;8.40;;;9.30;99.90;;;;;;5070660;28;20484;-48
2021/12/27 02:24:48;;;;;;;12.07;8.80;;;9.30;99.90;;;;;;5104279;27;20499;-47
2021/12/27 02:27:17;;;;;;;12.60;8.30;;;9.40;99.90;;;;;;5086073;27;20496;-47
2021/12/27 02:29:44;;;;;;;15.50;9.53;;;9.40;99.90;;;;;;5077854;28;20566;-47
2021/12/27 02:32:11;;;;;;;21.93;9.53;;;9.40;99.90;;;;;;5078713;28;20479;-47
2021/12/27 02:34:37;;;;;;;19.07;9.57;;;9.40;99.90;;;;;;5079447;28;20485;-46
2021/12/27 02:37:05;;;;;;;16.87;9.50;;;9.40;99.90;;;;;;5079993;28;20479;-49
2021/12/27 02:39:32;;;;;;;14.77;9.83;;;9.50;99.90;;;;;;5079489;28;20865;-46
2021/12/27 02:41:59;;;;;;;15.27;10.00;;;9.60;99.90;;;;;;5076171;28;20545;-46
2021/12/27 02:44:25;;;;;;;13.77;9.60;;;9.60;99.90;;;;;;5082303;27;20487;-46
2021/12/27 02:46:52;;;;;;;15.53;9.73;;;9.70;99.90;;;;;;5079702;27;20726;-46
2021/12/27 02:49:19;;;;;;;17.90;9.60;;;9.80;99.90;;;;;;5078369;28;20479;-47
2021/12/27 02:51:46;;;;;;;17.93;9.03;;;9.80;99.90;;;;;;5077040;28;20476;-46
2021/12/27 02:54:14;;;;;;;16.33;9.37;;;9.70;99.90;;;;;;5081776;28;21292;-46
2021/12/27 02:56:41;;;;;;;17.50;10.63;;;9.60;99.90;;;;;;5074233;28;20512;-46
2021/12/27 02:59:08;;;;;;;13.60;9.70;;;9.60;99.90;;;;;;5082296;28;20486;-46
2021/12/27 03:01:35;;;;;;;15.30;8.70;;;9.50;99.90;;;;;;5076274;28;20484;-46
2021/12/27 03:04:01;;;;;;;19.77;10.20;;;9.50;99.90;;;;;;5101023;27;20993;-46
2021/12/27 03:06:28;;;;;;;14.80;9.87;;;9.50;99.90;;;;;;5102551;27;20940;-46
2021/12/27 03:08:55;;;;;;;17.67;10.90;;;9.50;99.90;;;;;;5081971;28;20537;-47
2021/12/27 03:11:23;;;;;;;24.73;10.67;;;9.50;99.90;;;;;;5080069;28;20493;-47
2021/12/27 03:13:51;;;;;;;26.80;11.30;;;9.50;99.90;;;;;;5078630;28;20829;-47
2021/12/27 03:16:21;;;;;;;16.50;9.97;;;9.60;99.90;;;;;;5067847;28;21017;-47
2021/12/27 03:18:50;;;;;;;16.87;10.40;;;9.60;99.90;;;;;;5077831;28;20484;-47
2021/12/27 03:21:17;;;;;;;13.00;8.37;;;9.60;99.90;;;;;;5075013;27;20481;-46
2021/12/27 03:23:46;;;;;;;24.60;12.13;;;9.60;99.90;;;;;;5092121;27;20491;-46
2021/12/27 03:26:13;;;;;;;17.27;10.10;;;9.50;99.90;;;;;;5077537;28;20803;-46
2021/12/27 03:28:41;;;;;;;17.07;8.27;;;9.40;99.90;;;;;;5080954;28;20969;-47
2021/12/27 03:31:08;;;;;;;15.53;9.20;;;9.50;99.90;;;;;;5080824;28;20710;-47
2021/12/27 03:33:37;;;;;;;18.63;8.93;;;9.50;99.90;;;;;;5080129;28;20488;-46
2021/12/27 03:36:06;;;;;;;16.53;8.97;;;9.60;99.90;;;;;;5077532;28;20897;-46
2021/12/27 03:38:34;;;;;;;13.70;9.10;;;9.70;99.90;;;;;;5074074;28;20464;-46
2021/12/27 03:41:03;;;;;;;19.30;9.63;;;9.70;99.90;;;;;;5081297;28;20534;-46
2021/12/27 03:43:29;;;;;;;14.80;9.50;;;9.60;99.90;;;;;;5078125;28;20480;-48
2021/12/27 03:45:58;;;;;;;13.13;8.17;;;9.60;99.90;;;;;;5082713;27;20502;-46
2021/12/27 03:48:24;;;;;;;12.67;8.90;;;9.60;99.90;;;;;;5094170;27;20472;-47
2021/12/27 03:50:52;;;;;;;11.77;8.30;;;9.60;99.90;;;;;;5083236;28;20487;-46
2021/12/27 03:53:19;;;;;;;14.40;8.20;;;9.70;99.90;;;;;;5082452;28;20999;-47
2021/12/27 03:55:45;;;;;;;16.13;10.07;;;9.70;99.90;;;;;;5075264;28;20482;-46
2021/12/27 03:58:24;;;;;;;15.13;8.17;;;9.70;99.90;;;;;;5075176;28;20483;-47
2021/12/27 04:01:02;;;;;;;21.83;9.80;;;9.70;99.90;;;;;;5080271;28;20967;-46
2021/12/27 04:03:31;;;;;;;18.70;10.50;;;9.70;99.90;;;;;;5075861;28;20478;-47
2021/12/27 04:05:58;;;;;;;13.97;9.00;;;9.70;99.90;;;;;;5077223;28;20480;-47
2021/12/27 04:08:25;;;;;;;15.33;9.47;;;9.70;99.90;;;;;;5081293;28;20513;-47
2021/12/27 04:10:52;;;;;;;13.70;8.27;;;9.70;99.90;;;;;;5082967;28;20541;-47
2021/12/27 04:13:21;;;;;;;13.10;7.83;;;9.70;99.90;;;;;;5083902;28;20493;-47
2021/12/27 04:15:49;;;;;;;19.57;9.83;;;9.60;99.90;;;;;;5074932;28;20479;-47
2021/12/27 04:18:16;;;;;;;15.00;7.83;;;9.70;99.90;;;;;;5078689;28;20578;-47
2021/12/27 04:20:45;;;;;;;18.43;10.03;;;9.70;99.90;;;;;;5078103;28;20868;-47
2021/12/27 04:23:11;;;;;;;16.43;9.30;;;9.80;99.90;;;;;;5076452;28;20540;-48
2021/12/27 04:25:38;;;;;;;22.00;10.00;;;9.70;99.90;;;;;;5078972;28;20543;-47
2021/12/27 04:28:05;;;;;;;13.50;9.30;;;9.70;99.90;;;;;;5078154;28;20476;-47
2021/12/27 04:30:33;;;;;;;16.43;9.70;;;9.70;99.90;;;;;;5077875;28;20484;-47
2021/12/27 04:33:00;;;;;;;14.63;9.63;;;9.70;99.90;;;;;;5058854;28;20514;-47
2021/12/27 04:35:26;;;;;;;16.73;9.23;;;9.70;99.90;;;;;;5094280;28;20911;-47
2021/12/27 04:37:54;;;;;;;20.70;9.80;;;9.60;99.90;;;;;;5077988;28;20478;-47
2021/12/27 04:40:24;;;;;;;16.03;10.20;;;9.60;99.90;;;;;;5079241;28;20525;-47
2021/12/27 04:42:53;;;;;;;15.30;10.47;;;9.50;99.90;;;;;;5077183;28;20534;-47
2021/12/27 04:45:20;;;;;;;18.67;8.40;;;9.50;99.90;;;;;;5082150;28;20536;-50
2021/12/27 04:47:47;;;;;;;16.83;9.20;;;9.60;99.90;;;;;;5079393;28;20531;-46
2021/12/27 04:50:14;;;;;;;19.60;8.77;;;9.70;99.90;;;;;;5074378;28;20486;-47
2021/12/27 04:52:42;;;;;;;12.63;8.83;;;9.70;99.90;;;;;;5092370;28;20482;-47
2021/12/27 04:55:10;;;;;;;12.80;9.70;;;9.60;99.90;;;;;;5083166;28;20497;-47
2021/12/27 04:57:37;;;;;;;17.73;11.40;;;9.70;99.90;;;;;;5084071;28;20567;-46
2021/12/27 05:00:05;;;;;;;13.90;9.30;;;9.60;99.90;;;;;;5081706;28;20472;-46
2021/12/27 05:02:32;;;;;;;16.73;10.17;;;9.60;99.90;;;;;;5087615;28;21069;-47
2021/12/27 05:04:59;;;;;;;17.30;10.30;;;9.60;99.90;;;;;;5082379;28;20473;-47
2021/12/27 05:07:25;;;;;;;19.53;11.17;;;9.50;99.90;;;;;;5081696;28;20517;-51
2021/12/27 05:09:52;;;;;;;17.47;10.47;;;9.60;99.90;;;;;;5081153;28;20884;-47
2021/12/27 05:12:20;;;;;;;11.60;8.43;;;9.50;99.90;;;;;;5078117;28;20981;-47
2021/12/27 05:14:47;;;;;;;14.40;9.10;;;9.70;99.90;;;;;;5083029;28;20999;-47
2021/12/27 05:17:13;;;;;;;12.33;9.37;;;9.60;99.90;;;;;;5079782;28;20483;-46
2021/12/27 05:19:40;;;;;;;14.70;9.60;;;9.70;99.90;;;;;;5078715;28;20515;-47
2021/12/27 05:22:08;;;;;;;13.47;8.30;;;9.70;99.90;;;;;;5079752;28;20515;-47
2021/12/27 05:24:35;;;;;;;11.50;9.07;;;9.70;99.90;;;;;;5074089;28;21033;-47
2021/12/27 05:27:01;;;;;;;11.53;8.70;;;9.70;99.90;;;;;;5094098;28;20763;-47
2021/12/27 05:29:29;;;;;;;13.03;7.57;;;9.70;99.90;;;;;;5080466;27;20867;-47
2021/12/27 05:32:01;;;;;;;14.03;7.90;;;9.80;99.90;;;;;;5098772;27;21259;-47
2021/12/27 05:34:28;;;;;;;12.13;8.13;;;9.80;99.90;;;;;;5075981;28;20476;-47
2021/12/27 05:36:54;;;;;;;12.50;7.93;;;9.90;99.90;;;;;;5080686;28;20536;-47
2021/12/27 05:39:22;;;;;;;11.43;6.70;;;9.90;99.90;;;;;;5089754;27;20505;-47
2021/12/27 05:41:51;;;;;;;9.53;6.47;;;9.90;99.90;;;;;;5082604;27;20497;-47
2021/12/27 05:44:18;;;;;;;11.13;7.17;;;10.00;99.90;;;;;;5091920;28;20481;-48
2021/12/27 05:46:46;;;;;;;8.47;7.30;;;10.00;99.90;;;;;;5082271;28;20474;-47
2021/12/27 05:49:14;;;;;;;8.77;6.80;;;10.00;99.90;;;;;;5084692;28;20548;-47
2021/12/27 05:51:41;;;;;;;8.10;6.53;;;9.90;99.90;;;;;;5075269;28;20612;-47
2021/12/27 05:54:08;;;;;;;7.20;5.27;;;9.90;99.90;;;;;;5095322;28;20471;-47
2021/12/27 05:56:35;;;;;;;12.00;6.07;;;9.90;99.90;;;;;;5082003;28;20492;-47
2021/12/27 05:59:01;;;;;;;8.30;5.67;;;10.00;99.90;;;;;;5083620;28;20486;-47
2021/12/27 06:01:28;;;;;;;9.43;6.47;;;10.10;99.90;;;;;;5070078;28;20519;-47
2021/12/27 06:03:58;;;;;;;7.60;6.43;;;10.20;99.90;;;;;;5079904;28;20540;-47
2021/12/27 06:06:25;;;;;;;8.80;6.00;;;10.20;99.90;;;;;;5072750;28;20843;-47
2021/12/27 06:08:52;;;;;;;7.27;5.83;;;10.20;99.90;;;;;;5089785;28;20909;-47
2021/12/27 06:11:19;;;;;;;9.10;6.47;;;10.20;99.90;;;;;;5081545;28;20480;-47
2021/12/27 06:13:46;;;;;;;6.70;5.97;;;10.20;99.90;;;;;;5078527;28;20483;-47
2021/12/27 06:16:13;;;;;;;6.40;5.03;;;10.10;99.90;;;;;;5077798;28;20480;-47
2021/12/27 06:18:40;;;;;;;8.07;5.43;;;10.10;99.90;;;;;;5083485;28;20479;-46
2021/12/27 06:21:08;;;;;;;8.80;5.23;;;10.10;99.90;;;;;;5081348;28;20560;-47
2021/12/27 06:23:35;;;;;;;6.87;5.60;;;10.10;99.90;;;;;;5078739;28;20492;-47
2021/12/27 06:26:02;;;;;;;7.37;5.20;;;10.20;99.90;;;;;;5076094;28;20492;-47
2021/12/27 06:28:31;;;;;;;6.00;5.40;;;10.20;99.90;;;;;;5086429;28;21064;-47
2021/12/27 06:30:58;;;;;;;7.47;5.53;;;10.20;99.90;;;;;;5077750;28;20483;-47
2021/12/27 06:33:25;;;;;;;12.17;5.67;;;10.20;99.90;;;;;;5082710;28;20506;-47
2021/12/27 06:35:52;;;;;;;8.40;5.60;;;10.10;99.90;;;;;;5080616;28;21005;-47
2021/12/27 06:38:21;;;;;;;6.90;5.43;;;10.00;99.90;;;;;;5063887;28;20520;-48
2021/12/27 06:40:48;;;;;;;7.87;4.97;;;9.90;99.90;;;;;;5078361;28;20504;-47
2021/12/27 06:43:15;;;;;;;5.23;4.70;;;10.00;99.90;;;;;;5079226;28;20482;-47
2021/12/27 06:45:42;;;;;;;6.97;5.30;;;10.00;99.90;;;;;;5077753;28;20484;-47
2021/12/27 06:48:08;;;;;;;10.97;5.73;;;10.00;99.90;;;;;;5082398;28;20489;-47
2021/12/27 06:50:35;;;;;;;7.27;6.00;;;10.00;99.90;;;;;;5076688;28;20485;-48
2021/12/27 06:53:02;;;;;;;7.57;4.77;;;10.10;99.90;;;;;;5072163;28;20485;-48
2021/12/27 06:55:30;;;;;;;7.23;4.73;;;10.00;99.90;;;;;;5094243;28;20729;-47
2021/12/27 06:57:57;;;;;;;6.80;4.70;;;10.00;99.90;;;;;;5079096;28;20552;-47
2021/12/27 07:00:24;;;;;;;9.30;4.97;;;9.90;99.90;;;;;;5077034;28;20490;-47
2021/12/27 07:02:51;;;;;;;6.83;4.90;;;9.90;99.90;;;;;;5084967;28;20541;-47
2021/12/27 07:05:18;;;;;;;4.67;4.27;;;10.00;99.90;;;;;;5080093;28;20530;-47
2021/12/27 07:07:45;;;;;;;6.40;4.60;;;10.00;99.90;;;;;;5078931;28;20744;-47
2021/12/27 07:10:15;;;;;;;5.23;4.73;;;10.10;99.90;;;;;;5084690;28;20549;-47
2021/12/27 07:12:44;;;;;;;5.90;4.20;;;10.00;99.90;;;;;;5080459;28;21064;-47
2021/12/27 07:15:11;;;;;;;8.33;4.77;;;10.10;99.90;;;;;;5071833;28;20632;-47
2021/12/27 07:17:38;;;;;;;5.13;4.03;;;10.10;99.90;;;;;;5073433;28;20516;-47
2021/12/27 07:20:06;;;;;;;5.57;4.00;;;10.10;99.90;;;;;;5076919;28;20553;-47
2021/12/27 07:22:33;;;;;;;7.50;4.47;;;10.10;99.90;;;;;;5078824;28;20556;-46
2021/12/27 07:25:01;;;;;;;4.73;3.70;;;10.10;99.90;;;;;;5062379;28;20484;-47
2021/12/27 07:27:27;;;;;;;5.00;4.17;;;10.10;99.90;;;;;;5082263;28;20475;-47
2021/12/27 07:29:56;;;;;;;5.90;4.00;;;10.20;99.90;;;;;;5073771;28;20480;-47
2021/12/27 07:32:23;;;;;;;4.50;4.00;;;10.10;99.90;;;;;;5075957;28;20541;-47
2021/12/27 07:34:50;;;;;;;4.97;4.00;;;10.10;99.90;;;;;;5066301;28;20548;-47
2021/12/27 07:37:17;;;;;;;6.40;5.80;;;10.00;99.90;;;;;;5077413;28;20505;-47
2021/12/27 07:39:44;;;;;;;4.53;3.60;;;10.00;99.90;;;;;;5070775;28;20486;-47
2021/12/27 07:42:11;;;;;;;7.13;4.57;;;10.00;99.90;;;;;;5077982;28;20545;-47
2021/12/27 07:44:38;;;;;;;6.20;4.33;;;10.00;99.90;;;;;;5072939;28;20544;-47
2021/12/27 07:47:06;;;;;;;4.80;4.40;;;10.10;99.90;;;;;;5075217;28;20491;-47
2021/12/27 07:49:33;;;;;;;5.70;4.50;;;10.10;99.90;;;;;;5079153;28;21035;-47
2021/12/27 07:52:00;;;;;;;5.57;4.33;;;10.20;99.90;;;;;;5072710;28;20877;-46
2021/12/27 07:54:27;;;;;;;5.87;4.30;;;10.30;99.90;;;;;;5073328;28;20471;-47
2021/12/27 07:56:54;;;;;;;6.60;4.60;;;10.30;99.90;;;;;;5070098;28;20541;-47
2021/12/27 07:59:20;;;;;;;4.80;4.30;;;10.30;99.90;;;;;;5067022;28;20480;-47
2021/12/27 08:01:47;;;;;;;6.00;4.00;;;10.40;99.90;;;;;;5085994;28;20483;-47
2021/12/27 08:04:15;;;;;;;3.87;3.57;;;10.40;99.90;;;;;;5065679;28;20486;-47
2021/12/27 08:06:42;;;;;;;5.20;4.60;;;10.40;99.90;;;;;;5077191;28;20508;-47
2021/12/27 08:09:09;;;;;;;5.57;4.03;;;10.40;99.90;;;;;;5070626;28;20881;-47
2021/12/27 08:11:36;;;;;;;5.10;4.60;;;10.30;99.90;;;;;;5067962;28;20483;-47
2021/12/27 08:14:03;;;;;;;4.93;4.30;;;10.20;99.90;;;;;;5066473;28;20883;-47
2021/12/27 08:16:29;;;;;;;5.37;4.87;;;10.10;99.90;;;;;;5069970;28;20485;-47
2021/12/27 08:18:57;;;;;;;6.80;5.30;;;10.00;99.90;;;;;;5070311;28;20514;-47
2021/12/27 08:21:26;;;;;;;7.50;5.10;;;10.00;99.90;;;;;;5071280;28;20501;-46
2021/12/27 08:23:53;;;;;;;7.70;4.70;;;10.00;99.90;;;;;;5070736;28;20540;-46
2021/12/27 08:26:21;;;;;;;6.00;5.40;;;10.10;99.90;;;;;;5070533;28;20487;-47
2021/12/27 08:28:50;;;;;;;9.13;6.07;;;10.20;99.90;;;;;;5062975;28;20483;-46
2021/12/27 08:31:17;;;;;;;5.27;4.77;;;10.20;99.90;;;;;;5078900;28;21066;-47
2021/12/27 08:33:44;;;;;;;6.40;5.13;;;10.40;99.90;;;;;;5067631;28;20547;-47
2021/12/27 08:36:10;;;;;;;5.00;4.20;;;10.50;99.90;;;;;;5078726;28;20488;-46
2021/12/27 08:38:38;;;;;;;6.70;5.40;;;10.50;99.90;;;;;;5068159;28;20498;-46
2021/12/27 08:41:05;;;;;;;9.50;4.83;;;10.60;99.90;;;;;;5087434;28;20467;-47
2021/12/27 08:43:32;;;;;;;6.10;5.33;;;10.60;99.90;;;;;;5068710;28;20484;-47
2021/12/27 08:45:59;;;;;;;5.10;4.70;;;10.60;99.90;;;;;;5072727;28;20970;-47
2021/12/27 08:48:27;;;;;;;7.70;4.97;;;10.60;99.90;;;;;;5075530;28;21005;-47
2021/12/27 08:50:54;;;;;;;5.70;5.10;;;10.50;99.90;;;;;;5073417;28;20486;-47
2021/12/27 08:53:21;;;;;;;6.97;5.10;;;10.40;99.90;;;;;;5077430;28;20556;-48
2021/12/27 08:55:49;;;;;;;4.67;4.23;;;10.40;99.90;;;;;;5061229;28;20542;-47
2021/12/27 08:58:16;;;;;;;5.70;4.77;;;10.50;99.90;;;;;;5076712;28;20540;-47
2021/12/27 09:00:43;;;;;;;4.60;4.20;;;10.50;99.90;;;;;;5068918;28;20492;-47
2021/12/27 09:03:11;;;;;;;6.17;4.87;;;10.60;99.90;;;;;;5071482;28;20491;-47
2021/12/27 09:05:38;;;;;;;5.97;5.40;;;10.50;99.90;;;;;;5073866;28;20478;-47
2021/12/27 09:08:05;;;;;;;4.97;4.53;;;10.60;99.90;;;;;;5078743;28;20514;-47
2021/12/27 09:10:31;;;;;;;5.43;4.90;;;10.70;99.90;;;;;;5080107;28;20838;-47
2021/12/27 09:13:00;;;;;;;8.40;4.60;;;10.80;99.90;;;;;;5078981;28;20484;-48
2021/12/27 09:15:27;;;;;;;5.27;4.70;;;10.90;99.90;;;;;;5078107;28;20584;-56
2021/12/27 09:17:54;;;;;;;4.67;4.27;;;11.10;99.90;;;;;;5078635;28;20483;-47
2021/12/27 09:20:21;;;;;;;5.40;4.90;;;11.30;99.90;;;;;;5077631;28;20485;-47
2021/12/27 09:22:48;;;;;;;6.63;4.63;;;11.40;99.90;;;;;;5078329;28;20607;-48
2021/12/27 09:25:15;;;;;;;5.53;5.03;;;11.60;99.90;;;;;;5077705;28;20536;-47
2021/12/27 09:27:41;;;;;;;6.77;5.00;;;11.90;99.90;;;;;;5080629;28;20487;-47
2021/12/27 09:30:11;;;;;;;5.17;4.67;;;12.10;99.90;;;;;;5077797;27;20534;-47
2021/12/27 09:32:38;;;;;;;6.10;4.27;;;12.30;99.90;;;;;;5099570;27;20472;-47
2021/12/27 09:35:06;;;;;;;4.90;4.20;;;12.50;99.90;;;;;;5075787;28;20661;-48
2021/12/27 09:37:33;;;;;;;8.93;5.03;;;12.70;99.90;;;;;;5086713;28;20479;-47
2021/12/27 09:40:00;;;;;;;6.00;4.63;;;12.90;99.90;;;;;;5081330;28;21136;-47
2021/12/27 09:42:28;;;;;;;5.17;4.67;;;13.10;99.90;;;;;;5082527;28;20606;-47
2021/12/27 09:44:56;;;;;;;5.17;4.73;;;13.30;99.90;;;;;;5079282;28;20531;-47
2021/12/27 09:47:24;;;;;;;5.53;5.03;;;13.40;99.90;;;;;;5077111;28;20509;-48
2021/12/27 09:49:51;;;;;;;7.00;5.90;;;13.40;99.90;;;;;;5080748;28;20482;-47
2021/12/27 09:52:18;;;;;;;9.00;5.13;;;13.40;99.90;;;;;;5078370;28;20488;-48
2021/12/27 09:54:47;;;;;;;5.97;5.40;;;13.40;99.90;;;;;;5086150;28;21210;-48
2021/12/27 09:57:15;;;;;;;8.47;4.63;;;13.40;99.90;;;;;;5077680;28;20481;-48
2021/12/27 09:59:41;;;;;;;5.70;4.57;;;13.30;99.90;;;;;;5076091;28;20543;-47
2021/12/27 10:02:08;;;;;;;5.30;4.80;;;13.30;99.90;;;;;;5067261;28;20498;-47
2021/12/27 10:04:36;;;;;;;5.93;5.10;;;13.30;99.90;;;;;;5083708;28;20528;-47
2021/12/27 10:07:03;;;;;;;4.70;3.93;;;13.30;99.90;;;;;;5076010;27;20480;-48
2021/12/27 10:09:33;;;;;;;6.70;5.10;;;13.30;99.90;;;;;;5072669;27;20535;-47
2021/12/27 10:12:02;;;;;;;5.50;5.03;;;13.40;99.90;;;;;;5073443;28;20554;-48
2021/12/27 10:14:29;;;;;;;8.30;7.40;;;13.40;99.90;;;;;;5070681;28;20516;-47
2021/12/27 10:17:06;;;;;;;9.67;7.47;;;13.40;99.90;;;;;;5070319;28;20480;-47
2021/12/27 10:19:34;;;;;;;9.20;7.70;;;13.50;99.90;;;;;;5072241;28;20862;-47
2021/12/27 10:22:03;;;;;;;7.77;6.97;;;13.50;99.90;;;;;;5076320;28;20560;-48
2021/12/27 10:24:30;;;;;;;6.27;5.60;;;13.50;99.90;;;;;;5074182;28;20493;-48
2021/12/27 10:27:00;;;;;;;5.40;4.90;;;13.60;99.90;;;;;;5071416;28;20857;-48
2021/12/27 10:29:28;;;;;;;5.60;5.10;;;13.60;99.90;;;;;;5075246;28;20496;-48
2021/12/27 10:31:59;;;;;;;5.40;4.83;;;13.60;99.90;;;;;;5091650;27;20472;-49
2021/12/27 10:34:28;;;;;;;5.27;4.77;;;13.60;99.90;;;;;;5097158;27;20490;-52
2021/12/27 10:37:07;;;;;;;5.40;5.00;;;13.70;99.90;;;;;;5080314;28;20474;-47
2021/12/27 10:39:49;;;;;;;6.13;5.53;;;13.60;99.90;;;;;;5061238;28;20457;-47
2021/12/27 10:42:19;;;;;;;7.60;5.83;;;13.50;99.90;;;;;;5061482;28;20535;-47
2021/12/27 10:44:46;;;;;;;4.77;4.27;;;13.40;99.90;;;;;;5049787;28;20491;-48
2021/12/27 10:47:38;;;;;;;5.03;4.60;;;13.10;99.70;;;;;;5074616;28;20893;-47
2021/12/27 10:50:16;;;;;;;5.43;4.93;;;12.80;99.50;;;;;;5041047;28;20467;-48
2021/12/27 10:53:04;;;;;;;6.37;4.97;;;12.50;99.90;;;;;;5082395;27;20488;-47
2021/12/27 10:55:34;;;;;;;5.70;4.40;;;12.10;99.90;;;;;;5034666;28;20499;-47
2021/12/27 10:58:19;;;;;;;5.20;4.70;;;12.00;99.90;;;;;;5041738;28;20491;-47
2021/12/27 11:00:49;;;;;;;5.33;4.77;;;11.80;99.90;;;;;;5053273;27;20518;-47
2021/12/27 11:03:29;;;;;;;7.03;4.97;;;11.70;99.90;;;;;;5059046;28;20586;-47
2021/12/27 11:05:56;;;;;;;5.47;4.43;;;11.70;99.90;;;;;;5085222;27;20477;-47
2021/12/27 11:08:26;;;;;;;6.40;5.80;;;11.70;99.90;;;;;;5067033;27;20479;-48
2021/12/27 11:10:53;;;;;;;7.03;5.27;;;11.70;99.90;;;;;;5057612;28;20549;-47
2021/12/27 11:13:20;;;;;;;5.47;4.50;;;11.70;99.90;;;;;;5060323;28;20828;-48
2021/12/27 11:15:46;;;;;;;15.83;5.67;;;11.90;99.90;;;;;;5051241;28;20523;-48
2021/12/27 11:18:15;;;;;;;6.30;4.60;;;12.00;99.90;;;;;;5085721;27;20483;-48
2021/12/27 11:20:44;;;;;;;5.43;4.87;;;12.20;99.90;;;;;;5058545;28;20478;-48
2021/12/27 11:23:12;;;;;;;5.00;3.80;;;12.30;99.90;;;;;;5062242;28;20493;-47
2021/12/27 11:25:42;;;;;;;10.60;4.17;;;12.40;99.90;;;;;;5049025;28;20475;-48
2021/12/27 11:28:25;;;;;;;4.63;3.90;;;12.50;99.90;;;;;;5056952;28;20504;-47
2021/12/27 11:30:52;;;;;;;5.00;3.37;;;12.60;99.90;;;;;;5049939;28;20481;-48
2021/12/27 11:33:22;;;;;;;5.90;4.17;;;12.80;99.90;;;;;;5056677;28;20538;-49
2021/12/27 11:36:10;;;;;;;4.50;3.20;;;12.90;99.90;;;;;;5057563;28;20547;-48
2021/12/27 11:38:40;;;;;;;3.20;2.90;;;12.90;99.90;;;;;;5056693;28;21242;-48
2021/12/27 11:41:28;;;;;;;3.30;2.53;;;12.70;99.70;;;;;;5058316;28;20996;-47
2021/12/27 11:43:58;;;;;;;6.03;3.43;;;12.50;99.80;;;;;;5056071;28;20536;-47
2021/12/27 11:46:26;;;;;;;5.17;2.30;;;12.40;99.80;;;;;;5084055;27;20478;-47
2021/12/27 11:48:54;;;;;;;10.10;3.40;;;12.40;99.90;;;;;;5061315;28;20535;-47
2021/12/27 11:51:31;;;;;;;3.07;2.50;;;12.50;99.90;;;;;;5049969;28;20556;-47
2021/12/27 11:53:59;;;;;;;3.27;2.10;;;12.40;99.90;;;;;;5043103;28;20490;-47
2021/12/27 11:56:48;;;;;;;3.20;2.17;;;12.30;99.90;;;;;;5046486;28;20490;-47
2021/12/27 11:59:38;;;;;;;2.70;2.00;;;12.20;99.90;;;;;;5055720;28;20501;-47
2021/12/27 12:02:29;;;;;;;6.10;2.57;;;12.10;99.90;;;;;;5035534;28;20492;-47
2021/12/27 12:04:58;;;;;;;3.10;2.43;;;12.10;99.90;;;;;;5092172;27;20477;-48
2021/12/27 12:07:51;;;;;;;2.70;2.50;;;12.10;99.90;;;;;;5051008;28;20474;-47
2021/12/27 12:10:19;;;;;;;4.37;3.97;;;11.90;99.90;;;;;;5061340;28;21046;-47
2021/12/27 12:13:20;;;;;;;5.03;2.67;;;11.70;99.90;;;;;;5049920;28;20544;-47
2021/12/27 12:16:13;;;;;;;3.37;2.90;;;11.60;99.90;;;;;;5050450;28;20480;-47
2021/12/27 12:18:43;;;;;;;3.30;2.87;;;11.40;99.90;;;;;;5040593;28;20485;-47
2021/12/27 12:21:36;;;;;;;2.57;2.37;;;11.30;99.90;;;;;;5048917;28;20514;-48
2021/12/27 12:24:05;;;;;;;2.20;2.00;;;11.20;99.90;;;;;;5037833;28;20544;-47
2021/12/27 12:26:48;;;;;;;2.40;1.83;;;11.20;99.70;;;;;;5051553;28;20543;-48
2021/12/27 12:29:16;;;;;;;2.50;2.20;;;11.30;99.80;;;;;;5085993;28;20472;-48
2021/12/27 12:31:43;;;;;;;2.63;2.20;;;11.40;99.60;;;;;;5069368;28;20660;-48
2021/12/27 12:34:11;;;;;;;2.23;2.03;;;11.40;99.60;;;;;;5093374;28;20487;-47
2021/12/27 12:36:52;;;;;;;2.67;2.47;;;11.30;99.20;;;;;;5076653;28;20957;-47
2021/12/27 12:39:21;;;;;;;3.10;2.60;;;11.30;99.50;;;;;;5067387;28;20495;-48
2021/12/27 12:41:49;;;;;;;2.53;2.10;;;11.40;99.70;;;;;;5066941;28;20476;-47
2021/12/27 12:44:18;;;;;;;2.40;1.80;;;11.40;99.50;;;;;;5079622;28;20473;-48
2021/12/27 12:46:49;;;;;;;2.13;1.80;;;11.40;99.60;;;;;;5078083;28;20488;-48
2021/12/27 12:49:17;;;;;;;4.57;2.30;;;11.40;99.60;;;;;;5075052;28;20585;-48
2021/12/27 12:51:46;;;;;;;2.60;2.37;;;11.40;99.80;;;;;;5069175;28;20982;-48
2021/12/27 12:54:28;;;;;;;3.10;2.77;;;11.40;99.60;;;;;;5074744;28;20503;-48